createdAt,value
2023-03-06T00:00:55.346Z,19.95
2023-03-06T00:03:23.466Z,19.60
2023-03-06T00:05:50.960Z,21.20
2023-03-06T00:08:19.215Z,20.15
2023-03-06T00:10:46.462Z,25.05
2023-03-06T00:13:16.328Z,27.25
2023-03-06T00:15:43.724Z,21.63
2023-03-06T00:18:11.120Z,22.15
2023-03-06T00:20:44.070Z,22.08
2023-03-06T00:23:12.035Z,24.13
2023-03-06T00:25:43.685Z,20.98
2023-03-06T00:28:12.526Z,21.17
2023-03-06T00:30:39.871Z,20.08
2023-03-06T00:33:07.226Z,19.80
2023-03-06T00:35:34.545Z,20.45
2023-03-06T00:38:01.841Z,22.88
2023-03-06T00:40:29.190Z,19.80
2023-03-06T00:42:56.479Z,21.13
2023-03-06T00:45:23.957Z,20.00
2023-03-06T00:47:51.204Z,19.15
2023-03-06T00:50:18.587Z,18.60
2023-03-06T00:52:46.433Z,20.45
2023-03-06T00:55:13.920Z,24.35
2023-03-06T00:57:41.199Z,23.02
2023-03-06T01:00:09.771Z,21.45
2023-03-06T01:02:37.069Z,18.60
2023-03-06T01:05:05.146Z,20.88
2023-03-06T01:07:34.348Z,22.15
2023-03-06T01:10:01.595Z,21.15
2023-03-06T01:12:28.854Z,17.35
2023-03-06T01:14:56.251Z,17.92
2023-03-06T01:17:23.629Z,21.45
2023-03-06T01:19:50.887Z,18.15
2023-03-06T01:22:18.123Z,21.40
2023-03-06T01:24:45.857Z,20.63
2023-03-06T01:27:13.144Z,22.27
2023-03-06T01:29:40.346Z,17.70
2023-03-06T01:32:07.950Z,23.30
2023-03-06T01:34:35.092Z,21.88
2023-03-06T01:37:02.402Z,20.90
2023-03-06T01:39:31.755Z,25.92
2023-03-06T01:41:59.105Z,23.88
2023-03-06T01:44:28.168Z,26.35
2023-03-06T01:46:55.368Z,20.25
2023-03-06T01:49:36.654Z,24.02
2023-03-06T01:52:15.376Z,19.85
2023-03-06T01:54:48.256Z,25.52
2023-03-06T01:57:20.884Z,20.70
2023-03-06T01:59:53.363Z,26.52
2023-03-06T02:02:21.040Z,26.20
2023-03-06T02:04:48.857Z,24.27
2023-03-06T02:07:20.185Z,27.77
2023-03-06T02:09:48.507Z,27.48
2023-03-06T02:12:19.384Z,23.65
2023-03-06T02:14:48.012Z,28.05
2023-03-06T02:17:18.482Z,27.52
2023-03-06T02:20:09.652Z,29.30
2023-03-06T02:23:08.129Z,28.75
2023-03-06T02:25:38.023Z,30.00
2023-03-06T02:28:08.127Z,26.65
2023-03-06T02:30:36.655Z,33.03
2023-03-06T02:33:05.136Z,26.58
2023-03-06T02:35:38.829Z,27.40
2023-03-06T02:38:13.923Z,31.40
2023-03-06T02:40:49.017Z,30.33
2023-03-06T02:43:20.397Z,32.38
2023-03-06T02:45:51.150Z,32.80
2023-03-06T02:48:19.472Z,30.70
2023-03-06T02:50:47.292Z,38.50
2023-03-06T02:53:16.721Z,32.83
2023-03-06T02:55:44.706Z,34.05
2023-03-06T02:58:12.463Z,33.85
2023-03-06T03:00:40.440Z,30.35
2023-03-06T03:03:08.643Z,34.30
2023-03-06T03:05:35.873Z,31.13
2023-03-06T03:08:03.374Z,31.60
2023-03-06T03:10:30.742Z,32.95
2023-03-06T03:12:59.055Z,33.97
2023-03-06T03:15:26.479Z,33.05
2023-03-06T03:17:53.853Z,36.55
2023-03-06T03:20:23.434Z,31.45
2023-03-06T03:22:53.114Z,35.10
2023-03-06T03:25:23.476Z,33.42
2023-03-06T03:27:50.835Z,35.95
2023-03-06T03:30:18.645Z,36.75
2023-03-06T03:32:45.895Z,35.90
2023-03-06T03:35:13.360Z,38.78
2023-03-06T03:37:40.614Z,47.72
2023-03-06T03:40:10.501Z,39.35
2023-03-06T03:42:37.875Z,44.83
2023-03-06T03:45:05.416Z,37.63
2023-03-06T03:47:32.610Z,41.38
2023-03-06T03:49:59.845Z,39.22
2023-03-06T03:52:27.105Z,36.33
2023-03-06T03:54:54.305Z,42.13
2023-03-06T03:57:21.525Z,48.67
2023-03-06T03:59:48.921Z,48.90
2023-03-06T04:02:16.187Z,43.70
2023-03-06T04:04:43.857Z,41.90
2023-03-06T04:07:11.046Z,43.10
2023-03-06T04:09:38.297Z,57.08
2023-03-06T04:12:06.285Z,43.92
2023-03-06T04:14:33.693Z,42.78
2023-03-06T04:17:00.975Z,45.38
2023-03-06T04:19:28.239Z,47.28
2023-03-06T04:21:55.596Z,51.33
2023-03-06T04:24:22.743Z,45.58
2023-03-06T04:26:50.103Z,50.10
2023-03-06T04:29:17.423Z,49.05
2023-03-06T04:31:44.812Z,46.50
2023-03-06T04:34:12.098Z,53.45
2023-03-06T04:36:39.444Z,39.70
2023-03-06T04:39:06.787Z,45.72
2023-03-06T04:41:34.080Z,44.78
2023-03-06T04:44:01.181Z,47.65
2023-03-06T04:46:28.401Z,45.30
2023-03-06T04:48:55.773Z,44.85
2023-03-06T04:51:24.384Z,53.20
2023-03-06T04:53:52.404Z,49.53
2023-03-06T04:56:19.680Z,51.97
2023-03-06T04:58:47.166Z,47.15
2023-03-06T05:01:14.371Z,41.67
2023-03-06T05:03:41.732Z,40.45
2023-03-06T05:06:09.070Z,52.97
2023-03-06T05:08:36.530Z,47.33
2023-03-06T05:11:04.351Z,48.03
2023-03-06T05:13:31.643Z,53.67
2023-03-06T05:16:05.924Z,51.25
2023-03-06T05:18:34.207Z,49.13
2023-03-06T05:21:01.842Z,48.20
2023-03-06T05:23:30.598Z,51.92
2023-03-06T05:25:58.224Z,47.00
2023-03-06T05:28:26.239Z,45.90
2023-03-06T05:30:53.523Z,53.45
2023-03-06T05:33:20.851Z,56.08
2023-03-06T05:35:48.954Z,50.95
2023-03-06T05:38:18.090Z,48.83
2023-03-06T05:40:46.214Z,53.35
2023-03-06T05:43:13.497Z,57.00
2023-03-06T05:45:41.614Z,53.90
2023-03-06T05:48:09.561Z,55.33
2023-03-06T05:50:36.867Z,46.70
2023-03-06T05:53:04.535Z,57.22
2023-03-06T05:55:31.837Z,53.13
2023-03-06T05:57:59.145Z,50.17
2023-03-06T06:00:26.587Z,62.17
2023-03-06T06:02:53.810Z,55.90
2023-03-06T06:05:21.186Z,55.55
2023-03-06T06:07:48.717Z,55.33
2023-03-06T06:10:16.080Z,53.78
2023-03-06T06:12:43.620Z,63.33
2023-03-06T06:15:11.171Z,52.50
2023-03-06T06:17:38.716Z,58.15
2023-03-06T06:20:06.514Z,68.40
2023-03-06T06:22:37.264Z,54.17
2023-03-06T06:25:05.732Z,50.38
2023-03-06T06:27:33.170Z,52.92
2023-03-06T06:30:00.317Z,47.67
2023-03-06T06:32:27.600Z,53.33
2023-03-06T06:34:55.057Z,63.17
2023-03-06T06:37:22.221Z,60.17
2023-03-06T06:39:49.501Z,56.15
2023-03-06T06:42:38.264Z,50.95
2023-03-06T06:45:05.601Z,55.13
2023-03-06T06:47:34.554Z,59.22
2023-03-06T06:50:02.066Z,54.40
2023-03-06T06:52:29.464Z,55.20
2023-03-06T06:54:56.960Z,57.03
2023-03-06T06:57:24.267Z,48.88
2023-03-06T06:59:53.804Z,58.63
2023-03-06T07:02:24.150Z,56.47
2023-03-06T07:05:03.058Z,53.30
2023-03-06T07:07:36.850Z,54.30
2023-03-06T07:10:12.351Z,52.60
2023-03-06T07:12:39.800Z,52.90
2023-03-06T07:15:08.303Z,48.92
2023-03-06T07:17:35.909Z,48.65
2023-03-06T07:20:04.034Z,49.45
2023-03-06T07:22:38.730Z,48.38
2023-03-06T07:25:15.976Z,52.28
2023-03-06T07:27:46.970Z,59.08
2023-03-06T07:30:18.245Z,47.03
2023-03-06T07:32:45.828Z,51.45
2023-03-06T07:35:20.403Z,48.05
2023-03-06T07:37:48.163Z,40.45
2023-03-06T07:40:15.697Z,46.13
2023-03-06T07:42:43.161Z,48.88
2023-03-06T07:45:12.696Z,44.88
2023-03-06T07:47:40.628Z,45.58
2023-03-06T07:50:08.590Z,44.90
2023-03-06T07:52:37.966Z,45.10
2023-03-06T07:55:05.647Z,45.28
2023-03-06T07:57:32.916Z,41.88
2023-03-06T08:00:00.203Z,37.38
2023-03-06T08:02:27.700Z,46.55
2023-03-06T08:04:55.945Z,48.90
2023-03-06T08:07:23.888Z,38.00
2023-03-06T08:09:51.484Z,44.65
2023-03-06T08:12:18.762Z,39.38
2023-03-06T08:14:46.011Z,48.75
2023-03-06T08:17:13.416Z,39.92
2023-03-06T08:19:40.762Z,42.65
2023-03-06T08:22:08.397Z,43.05
2023-03-06T08:24:35.794Z,38.85
2023-03-06T08:27:03.801Z,37.72
2023-03-06T08:29:32.288Z,39.13
2023-03-06T08:31:59.596Z,36.42
2023-03-06T08:34:27.182Z,42.88
2023-03-06T08:36:54.652Z,38.67
2023-03-06T08:39:23.837Z,34.10
2023-03-06T08:41:51.142Z,41.75
2023-03-06T08:44:18.511Z,41.80
2023-03-06T08:46:45.780Z,41.20
2023-03-06T08:49:13.746Z,42.72
2023-03-06T08:51:41.146Z,43.60
2023-03-06T08:54:08.659Z,38.40
2023-03-06T08:56:35.854Z,38.45
2023-03-06T08:59:04.681Z,40.13
2023-03-06T09:01:35.273Z,38.10
2023-03-06T09:04:05.719Z,37.15
2023-03-06T09:06:35.569Z,35.58
2023-03-06T09:09:03.829Z,35.08
2023-03-06T09:11:31.985Z,31.65
2023-03-06T09:13:59.555Z,40.45
2023-03-06T09:16:27.077Z,35.92
2023-03-06T09:18:54.597Z,31.75
2023-03-06T09:21:23.507Z,39.67
2023-03-06T09:23:52.046Z,36.47
2023-03-06T09:26:19.422Z,34.65
2023-03-06T09:28:47.341Z,35.78
2023-03-06T09:31:18.496Z,34.05
2023-03-06T09:33:47.413Z,37.17
2023-03-06T09:36:17.962Z,30.33
2023-03-06T09:38:47.954Z,31.73
2023-03-06T09:41:41.729Z,28.50
2023-03-06T09:44:18.630Z,24.98
2023-03-06T09:47:03.394Z,28.38
2023-03-06T09:49:34.652Z,27.67
2023-03-06T09:52:29.783Z,24.17
2023-03-06T09:55:03.774Z,27.48
2023-03-06T09:58:15.543Z,21.58
2023-03-06T10:01:07.316Z,23.25
2023-03-06T10:04:00.724Z,20.40
2023-03-06T10:06:40.535Z,23.35
2023-03-06T10:09:25.195Z,26.55
2023-03-06T10:11:57.285Z,22.50
2023-03-06T10:14:40.116Z,20.52
2023-03-06T10:17:19.090Z,27.95
2023-03-06T10:19:49.635Z,23.13
2023-03-06T10:22:31.760Z,23.73
2023-03-06T10:25:28.201Z,21.75
2023-03-06T10:28:13.265Z,21.40
2023-03-06T10:31:11.017Z,23.55
2023-03-06T10:33:58.217Z,21.60
2023-03-06T10:36:28.127Z,28.45
2023-03-06T10:38:57.700Z,28.80
2023-03-06T10:41:31.349Z,21.67
2023-03-06T10:44:05.114Z,22.65
2023-03-06T10:46:35.557Z,25.95
2023-03-06T10:49:09.513Z,23.40
2023-03-06T10:51:36.724Z,26.10
2023-03-06T10:54:23.063Z,27.15
2023-03-06T10:56:50.227Z,25.80
2023-03-06T10:59:19.928Z,27.38
2023-03-06T11:01:50.559Z,26.90
2023-03-06T11:04:36.764Z,28.88
2023-03-06T11:07:17.758Z,24.55
2023-03-06T11:10:25.350Z,24.25
2023-03-06T11:13:17.422Z,25.38
2023-03-06T11:16:00.754Z,27.48
2023-03-06T11:18:39.946Z,27.67
2023-03-06T11:21:31.391Z,26.77
2023-03-06T11:24:12.347Z,22.75
2023-03-06T11:26:46.326Z,23.42
2023-03-06T11:29:34.021Z,22.30
2023-03-06T11:32:21.299Z,24.48
2023-03-06T11:35:16.680Z,25.98
2023-03-06T11:37:54.144Z,28.33
2023-03-06T11:40:25.269Z,27.38
2023-03-06T11:43:11.212Z,26.05
2023-03-06T11:45:46.801Z,28.13
2023-03-06T11:48:14.010Z,27.52
2023-03-06T11:50:51.736Z,26.15
2023-03-06T11:53:37.330Z,28.05
2023-03-06T11:56:19.624Z,23.73
2023-03-06T11:59:07.997Z,22.00
2023-03-06T12:02:12.525Z,23.45
2023-03-06T12:04:40.737Z,24.70
2023-03-06T12:07:16.852Z,22.88
2023-03-06T12:10:15.340Z,25.48
2023-03-06T12:13:04.594Z,20.75
2023-03-06T12:15:34.861Z,24.05
2023-03-06T12:18:24.237Z,25.23
2023-03-06T12:21:06.156Z,23.23
2023-03-06T12:23:57.612Z,25.38
2023-03-06T12:26:54.871Z,22.48
2023-03-06T12:29:46.018Z,28.80
2023-03-06T12:32:25.835Z,25.50
2023-03-06T12:35:30.394Z,24.52
2023-03-06T12:38:20.826Z,25.73
2023-03-06T12:40:56.796Z,21.70
2023-03-06T12:43:42.461Z,27.13
2023-03-06T12:46:22.994Z,25.83
2023-03-06T12:49:02.298Z,21.05
2023-03-06T12:51:30.192Z,20.67
2023-03-06T12:53:59.215Z,17.80
2023-03-06T12:56:29.029Z,19.45
2023-03-06T12:59:02.509Z,21.23
2023-03-06T13:01:41.512Z,22.00
2023-03-06T13:04:29.098Z,20.13
2023-03-06T13:07:11.518Z,18.70
2023-03-06T13:09:51.104Z,19.70
2023-03-06T13:12:36.517Z,19.80
2023-03-06T13:15:41.252Z,21.17
2023-03-06T13:18:23.441Z,18.10
2023-03-06T13:20:50.572Z,21.02
2023-03-06T13:23:29.900Z,22.15
2023-03-06T13:26:00.137Z,23.83
2023-03-06T13:28:49.611Z,22.13
2023-03-06T13:31:29.796Z,24.65
2023-03-06T13:34:05.717Z,24.80
2023-03-06T13:36:40.078Z,24.42
2023-03-06T13:39:09.387Z,22.85
2023-03-06T13:41:43.269Z,24.70
2023-03-06T13:44:25.561Z,28.02
2023-03-06T13:47:33.437Z,20.95
2023-03-06T13:50:01.811Z,25.42
2023-03-06T13:52:44.559Z,23.30
2023-03-06T13:55:23.113Z,18.95
2023-03-06T13:57:52.829Z,25.45
2023-03-06T14:00:36.697Z,19.90
2023-03-06T14:03:18.871Z,17.60
2023-03-06T14:05:49.630Z,16.63
2023-03-06T14:08:30.692Z,18.25
2023-03-06T14:11:21.999Z,14.70
2023-03-06T14:13:57.270Z,10.30
2023-03-06T14:16:26.900Z,11.20
2023-03-06T14:18:59.355Z,12.70
2023-03-06T14:21:45.687Z,12.10
2023-03-06T14:24:18.849Z,14.18
2023-03-06T14:26:50.771Z,16.45
2023-03-06T14:29:30.026Z,14.68
2023-03-06T14:31:59.860Z,15.23
2023-03-06T14:34:36.330Z,20.75
2023-03-06T14:37:05.867Z,20.23
2023-03-06T14:39:43.610Z,14.18
2023-03-06T14:42:24.948Z,15.45
2023-03-06T14:45:02.951Z,17.45
2023-03-06T14:47:32.414Z,19.85
2023-03-06T14:50:28.657Z,18.38
2023-03-06T14:53:18.926Z,19.00
2023-03-06T14:56:00.654Z,18.23
2023-03-06T14:58:45.833Z,17.58
2023-03-06T15:01:15.137Z,19.95
2023-03-06T15:03:53.330Z,22.00
2023-03-06T15:06:40.540Z,17.02
2023-03-06T15:09:16.272Z,18.52
2023-03-06T15:12:04.146Z,17.83
2023-03-06T15:14:37.639Z,19.83
2023-03-06T15:17:23.967Z,17.05
2023-03-06T15:19:54.770Z,20.65
2023-03-06T15:22:28.590Z,17.95
2023-03-06T15:25:28.185Z,17.48
2023-03-06T15:28:01.338Z,21.05
2023-03-06T15:30:28.616Z,16.95
2023-03-06T15:33:20.046Z,16.35
2023-03-06T15:36:20.537Z,16.85
2023-03-06T15:38:48.993Z,22.00
2023-03-06T15:41:34.625Z,20.42
2023-03-06T15:44:08.868Z,19.60
2023-03-06T15:49:05.071Z,17.50
2023-03-06T15:51:33.036Z,20.10
2023-03-06T15:54:11.379Z,19.10
2023-03-06T15:56:48.686Z,23.45
2023-03-06T15:59:33.380Z,18.85
2023-03-06T16:02:04.235Z,19.52
2023-03-06T16:04:31.556Z,19.10
2023-03-06T16:06:58.816Z,21.88
2023-03-06T16:09:26.152Z,18.20
2023-03-06T16:11:53.522Z,21.88
2023-03-06T16:14:24.228Z,21.92
2023-03-06T16:16:54.393Z,21.20
2023-03-06T16:19:26.335Z,22.00
2023-03-06T16:21:56.282Z,21.13
2023-03-06T16:24:23.565Z,22.50
2023-03-06T16:26:53.454Z,19.85
2023-03-06T16:29:26.459Z,16.52
2023-03-06T16:31:56.826Z,17.90
2023-03-06T16:34:25.033Z,16.08
2023-03-06T16:36:52.664Z,21.83
2023-03-06T16:39:24.908Z,16.73
2023-03-06T16:41:52.723Z,17.63
2023-03-06T16:44:20.934Z,17.92
2023-03-06T16:46:50.464Z,25.15
2023-03-06T16:49:25.628Z,19.50
2023-03-06T16:51:54.031Z,24.17
2023-03-06T16:54:23.414Z,22.20
2023-03-06T16:56:50.658Z,23.60
2023-03-06T16:59:17.985Z,29.60
2023-03-06T17:01:45.230Z,26.30
2023-03-06T17:04:13.126Z,24.48
2023-03-06T17:06:42.108Z,21.58
2023-03-06T17:09:11.155Z,19.98
2023-03-06T17:11:38.964Z,20.33
2023-03-06T17:14:07.167Z,21.67
2023-03-06T17:16:34.692Z,21.25
2023-03-06T17:19:02.681Z,24.05
2023-03-06T17:21:30.532Z,24.05
2023-03-06T17:23:58.053Z,21.13
2023-03-06T17:26:25.570Z,24.60
2023-03-06T17:28:53.067Z,22.48
2023-03-06T17:31:23.180Z,21.70
2023-03-06T17:33:51.834Z,24.30
2023-03-06T17:36:19.625Z,25.27
2023-03-06T17:38:47.300Z,23.02
2023-03-06T17:41:14.914Z,25.58
2023-03-06T17:43:42.573Z,28.10
2023-03-06T17:46:12.966Z,27.33
2023-03-06T17:48:40.522Z,28.13
2023-03-06T17:51:10.057Z,31.60
2023-03-06T17:53:38.019Z,32.67
2023-03-06T17:56:07.818Z,36.00
2023-03-06T17:58:35.678Z,31.50
2023-03-06T18:01:11.467Z,29.65
2023-03-06T18:03:39.209Z,31.95
2023-03-06T18:06:09.772Z,29.20
2023-03-06T18:08:38.143Z,28.35
2023-03-06T18:11:08.027Z,30.15
2023-03-06T18:13:37.615Z,33.58
2023-03-06T18:16:06.844Z,33.42
2023-03-06T18:18:35.627Z,33.03
2023-03-06T18:21:07.128Z,35.03
2023-03-06T18:23:36.125Z,33.97
2023-03-06T18:26:13.869Z,32.13
2023-03-06T18:28:44.762Z,36.55
2023-03-06T18:31:19.393Z,34.92
2023-03-06T18:33:50.153Z,30.88
2023-03-06T18:36:19.323Z,31.77
2023-03-06T18:38:55.003Z,33.38
2023-03-06T18:41:22.514Z,27.38
2023-03-06T18:43:57.465Z,32.65
2023-03-06T18:46:30.765Z,29.42
2023-03-06T18:48:58.213Z,28.43
2023-03-06T18:51:26.828Z,33.92
2023-03-06T18:53:56.706Z,28.67
2023-03-06T18:56:23.823Z,32.75
2023-03-06T18:58:50.997Z,29.70
2023-03-06T19:01:18.561Z,32.63
2023-03-06T19:03:45.844Z,36.17
2023-03-06T19:06:15.401Z,31.50
2023-03-06T19:08:42.982Z,30.17
2023-03-06T19:11:15.502Z,42.97
2023-03-06T19:13:44.240Z,26.05
2023-03-06T19:16:23.264Z,31.10
2023-03-06T19:18:50.829Z,28.80
2023-03-06T19:21:22.790Z,31.20
2023-03-06T19:23:50.170Z,31.17
2023-03-06T19:26:18.915Z,30.92
2023-03-06T19:28:47.666Z,31.65
2023-03-06T19:31:25.261Z,37.53
2023-03-06T19:33:56.023Z,29.92
2023-03-06T19:36:27.834Z,34.28
2023-03-06T19:38:56.735Z,28.75
2023-03-06T19:41:25.347Z,26.58
2023-03-06T19:43:55.438Z,28.02
2023-03-06T19:46:24.925Z,32.67
2023-03-06T19:48:59.952Z,34.20
2023-03-06T19:51:28.140Z,32.70
2023-03-06T19:53:56.870Z,29.08
2023-03-06T19:56:26.944Z,30.90
2023-03-06T19:58:55.095Z,27.58
2023-03-06T20:01:26.554Z,27.92
2023-03-06T20:03:59.342Z,31.15
2023-03-06T20:06:29.390Z,29.17
2023-03-06T20:08:57.125Z,27.20
2023-03-06T20:11:32.130Z,23.65
2023-03-06T20:14:01.226Z,23.05
2023-03-06T20:16:29.750Z,23.80
2023-03-06T20:18:59.010Z,24.63
2023-03-06T20:21:28.026Z,27.80
2023-03-06T20:23:57.178Z,21.73
2023-03-06T20:26:25.502Z,25.73
2023-03-06T20:28:52.605Z,22.85
2023-03-06T20:31:22.618Z,24.33
2023-03-06T20:33:52.253Z,21.50
2023-03-06T20:36:22.207Z,27.15
2023-03-06T20:38:49.540Z,25.98
2023-03-06T20:41:22.711Z,30.77
2023-03-06T20:43:50.596Z,26.38
2023-03-06T20:46:21.430Z,24.83
2023-03-06T20:48:50.741Z,25.63
2023-03-06T20:51:21.514Z,29.83
2023-03-06T20:53:51.256Z,27.23
2023-03-06T20:56:21.144Z,24.33
2023-03-06T20:58:48.363Z,20.63
2023-03-06T21:01:24.425Z,24.80
2023-03-06T21:03:52.404Z,25.50
2023-03-06T21:06:20.930Z,19.60
2023-03-06T21:08:48.065Z,20.85
2023-03-06T21:11:17.125Z,20.92
2023-03-06T21:13:44.737Z,23.77
2023-03-06T21:16:15.776Z,20.38
2023-03-06T21:18:44.508Z,23.90
2023-03-06T21:21:14.832Z,21.88
2023-03-06T21:23:41.966Z,24.15
2023-03-06T21:26:14.029Z,21.08
2023-03-06T21:28:41.730Z,23.13
2023-03-06T21:31:10.660Z,25.65
2023-03-06T21:33:38.590Z,22.33
2023-03-06T21:36:06.539Z,20.45
2023-03-06T21:38:34.037Z,26.73
2023-03-06T21:41:19.006Z,28.00
2023-03-06T21:43:46.163Z,26.48
2023-03-06T21:46:14.702Z,29.23
2023-03-06T21:48:42.036Z,26.73
2023-03-06T21:51:13.432Z,24.90
2023-03-06T21:53:43.190Z,26.88
2023-03-06T21:56:11.948Z,26.67
2023-03-06T21:58:39.970Z,36.33
2023-03-06T22:01:16.087Z,25.17
2023-03-06T22:03:43.636Z,28.05
2023-03-06T22:06:12.788Z,30.08
2023-03-06T22:08:40.450Z,28.65
2023-03-06T22:11:20.420Z,27.75
2023-03-06T22:13:48.462Z,33.03
2023-03-06T22:16:16.345Z,30.95
2023-03-06T22:18:48.773Z,29.63
2023-03-06T22:21:19.384Z,31.58
2023-03-06T22:23:54.836Z,29.05
2023-03-06T22:26:22.082Z,38.35
2023-03-06T22:28:49.963Z,34.20
2023-03-06T22:31:19.973Z,32.90
2023-03-06T22:33:47.285Z,34.97
2023-03-06T22:36:15.994Z,35.38
2023-03-06T22:38:44.978Z,27.13
2023-03-06T22:41:13.801Z,31.48
2023-03-06T22:43:42.359Z,33.92
2023-03-06T22:46:14.610Z,31.30
2023-03-06T22:48:42.470Z,31.05
2023-03-06T22:51:14.315Z,32.22
2023-03-06T22:53:41.699Z,31.80
2023-03-06T22:56:11.134Z,34.63
2023-03-06T22:58:39.217Z,35.63
2023-03-06T23:01:12.502Z,33.30
2023-03-06T23:03:45.721Z,32.90
2023-03-06T23:06:18.843Z,38.50
2023-03-06T23:08:51.220Z,34.88
2023-03-06T23:11:20.053Z,34.55
2023-03-06T23:13:47.465Z,35.13
2023-03-06T23:16:15.068Z,30.92
2023-03-06T23:18:42.454Z,29.40
2023-03-06T23:21:11.950Z,26.67
2023-03-06T23:23:39.832Z,29.63
2023-03-06T23:26:08.382Z,28.88
2023-03-06T23:28:35.654Z,23.70
2023-03-06T23:31:14.681Z,25.88
2023-03-06T23:33:43.289Z,23.13
2023-03-06T23:36:13.855Z,25.33
2023-03-06T23:38:41.449Z,25.20
2023-03-06T23:41:12.331Z,24.13
2023-03-06T23:43:39.752Z,31.17
2023-03-06T23:46:07.846Z,26.13
2023-03-06T23:48:36.629Z,24.42
2023-03-06T23:51:08.562Z,25.45
2023-03-06T23:53:36.144Z,25.33
2023-03-06T23:56:06.596Z,23.80
2023-03-06T23:58:34.402Z,25.60
